createdAt,value
2019-02-24T00:00:02.870Z,1.00
2019-02-24T00:02:33.742Z,1.00
2019-02-24T00:05:03.546Z,1.10
2019-02-24T00:07:32.820Z,1.00
2019-02-24T00:10:03.027Z,1.00
2019-02-24T00:12:32.386Z,0.90
2019-02-24T00:15:01.623Z,0.90
2019-02-24T00:17:30.966Z,0.90
2019-02-24T00:20:00.249Z,0.80
2019-02-24T00:22:29.495Z,0.80
2019-02-24T00:24:58.747Z,0.80
2019-02-24T00:27:28.030Z,0.80
2019-02-24T00:29:57.290Z,0.80
2019-02-24T00:32:26.615Z,0.80
2019-02-24T00:34:55.881Z,0.70
2019-02-24T00:37:25.141Z,0.70
2019-02-24T00:39:54.417Z,0.70
2019-02-24T00:42:23.691Z,0.70
2019-02-24T00:44:52.959Z,0.70
2019-02-24T00:47:22.203Z,0.70
2019-02-24T00:49:51.445Z,0.70
2019-02-24T00:52:20.710Z,0.70
2019-02-24T00:54:50.003Z,0.70
2019-02-24T00:57:19.290Z,0.70
2019-02-24T00:59:48.542Z,0.70
2019-02-24T01:02:17.822Z,0.70
2019-02-24T01:04:47.063Z,0.70
2019-02-24T01:07:16.643Z,0.70
2019-02-24T01:09:45.897Z,0.70
2019-02-24T01:12:15.160Z,0.80
2019-02-24T01:14:44.418Z,0.80
2019-02-24T01:17:13.666Z,0.80
2019-02-24T01:19:42.903Z,0.80
2019-02-24T01:22:12.163Z,0.90
2019-02-24T01:24:41.419Z,0.90
2019-02-24T01:27:10.670Z,0.80
2019-02-24T01:29:39.920Z,0.80
2019-02-24T01:32:09.195Z,0.80
2019-02-24T01:34:38.450Z,0.80
2019-02-24T01:37:07.705Z,0.70
2019-02-24T01:39:36.969Z,0.70
2019-02-24T01:42:06.235Z,0.70
2019-02-24T01:44:35.506Z,0.70
2019-02-24T01:47:04.762Z,0.60
2019-02-24T01:49:35.303Z,0.60
2019-02-24T01:52:04.795Z,0.60
2019-02-24T01:54:34.273Z,0.50
2019-02-24T01:57:03.510Z,0.50
2019-02-24T01:59:32.776Z,0.50
2019-02-24T02:02:02.046Z,0.40
2019-02-24T02:04:31.329Z,0.40
2019-02-24T02:07:00.599Z,0.30
2019-02-24T02:09:29.908Z,0.30
2019-02-24T02:11:59.169Z,0.30
2019-02-24T02:14:28.423Z,0.20
2019-02-24T02:16:57.685Z,0.20
2019-02-24T02:19:26.978Z,0.20
2019-02-24T02:21:56.207Z,0.10
2019-02-24T02:24:25.474Z,0.10
2019-02-24T02:26:54.937Z,0.10
2019-02-24T02:29:24.194Z,0.00
2019-02-24T02:31:53.439Z,0.00
2019-02-24T02:34:24.188Z,0.00
2019-02-24T02:36:53.447Z,0.00
2019-02-24T02:39:22.753Z,-0.10
2019-02-24T02:41:52.014Z,-0.10
2019-02-24T02:44:21.271Z,-0.10
2019-02-24T02:46:50.538Z,-0.10
2019-02-24T02:49:19.798Z,-0.10
2019-02-24T02:51:49.057Z,-0.20
2019-02-24T02:54:18.357Z,-0.20
2019-02-24T02:56:47.614Z,-0.20
2019-02-24T02:59:16.892Z,-0.20
2019-02-24T03:01:46.135Z,-0.30
2019-02-24T03:04:16.382Z,-0.30
2019-02-24T03:06:47.257Z,-0.30
2019-02-24T03:09:16.518Z,-0.30
2019-02-24T03:11:45.778Z,-0.30
2019-02-24T03:14:15.054Z,-0.40
2019-02-24T03:16:44.297Z,-0.30
2019-02-24T03:19:13.593Z,-0.40
2019-02-24T03:21:42.826Z,-0.40
2019-02-24T03:24:12.109Z,-0.40
2019-02-24T03:26:41.382Z,-0.40
2019-02-24T03:29:10.645Z,-0.40
2019-02-24T03:31:39.883Z,-0.50
2019-02-24T03:34:09.179Z,-0.50
2019-02-24T03:36:39.482Z,-0.50
2019-02-24T03:39:08.743Z,-0.50
2019-02-24T03:41:38.032Z,-0.50
2019-02-24T03:44:07.298Z,-0.60
2019-02-24T03:46:36.588Z,-0.60
2019-02-24T03:49:05.832Z,-0.70
2019-02-24T03:51:35.094Z,-0.70
2019-02-24T03:54:04.338Z,-0.70
2019-02-24T03:56:33.638Z,-0.70
2019-02-24T03:59:02.878Z,-0.70
2019-02-24T04:01:32.178Z,-0.80
2019-02-24T04:04:01.407Z,-0.80
2019-02-24T04:06:30.942Z,-0.80
2019-02-24T04:09:00.127Z,-0.90
2019-02-24T04:11:29.380Z,-0.90
2019-02-24T04:13:58.658Z,-0.90
2019-02-24T04:16:27.924Z,-0.90
2019-02-24T04:18:57.173Z,-0.90
2019-02-24T04:21:26.487Z,-0.90
2019-02-24T04:23:55.774Z,-1.00
2019-02-24T04:26:25.057Z,-1.00
2019-02-24T04:28:54.291Z,-1.00
2019-02-24T04:31:23.560Z,-1.00
2019-02-24T04:33:52.835Z,-1.00
2019-02-24T04:36:22.165Z,-1.00
2019-02-24T04:38:52.494Z,-1.00
2019-02-24T04:41:21.766Z,-1.00
2019-02-24T04:43:51.038Z,-1.00
2019-02-24T04:46:20.316Z,-1.00
2019-02-24T04:48:50.630Z,-1.00
2019-02-24T04:51:19.827Z,-1.10
2019-02-24T04:53:49.244Z,-1.10
2019-02-24T04:56:19.539Z,-1.10
2019-02-24T04:58:48.785Z,-1.10
2019-02-24T05:01:18.054Z,-1.10
2019-02-24T05:03:48.286Z,-1.20
2019-02-24T05:06:17.542Z,-1.20
2019-02-24T05:08:46.815Z,-1.20
2019-02-24T05:11:16.066Z,-1.20
2019-02-24T05:13:45.299Z,-1.20
2019-02-24T05:16:14.564Z,-1.20
2019-02-24T05:18:43.803Z,-1.20
2019-02-24T05:21:13.091Z,-1.30
2019-02-24T05:23:43.079Z,-1.30
2019-02-24T05:26:12.380Z,-1.30
2019-02-24T05:28:41.694Z,-1.30
2019-02-24T05:31:10.892Z,-1.30
2019-02-24T05:33:40.170Z,-1.30
2019-02-24T05:36:09.458Z,-1.30
2019-02-24T05:38:38.743Z,-1.30
2019-02-24T05:41:08.141Z,-1.40
2019-02-24T05:43:37.409Z,-1.40
2019-02-24T05:46:06.667Z,-1.40
2019-02-24T05:48:35.983Z,-1.40
2019-02-24T05:51:05.236Z,-1.40
2019-02-24T05:53:34.508Z,-1.40
2019-02-24T05:56:03.860Z,-1.40
2019-02-24T05:58:33.140Z,-1.50
2019-02-24T06:01:02.374Z,-1.50
2019-02-24T06:03:31.641Z,-1.50
2019-02-24T06:06:00.898Z,-1.50
2019-02-24T06:08:30.207Z,-1.50
2019-02-24T06:11:18.972Z,-1.50
2019-02-24T06:13:48.353Z,-1.50
2019-02-24T06:16:17.625Z,-1.50
2019-02-24T06:18:46.913Z,-1.50
2019-02-24T06:21:16.195Z,-1.40
2019-02-24T06:23:45.479Z,-1.50
2019-02-24T06:26:14.762Z,-1.50
2019-02-24T06:28:44.123Z,-1.50
2019-02-24T06:31:13.387Z,-1.50
2019-02-24T06:33:42.659Z,-1.50
2019-02-24T06:36:11.917Z,-1.50
2019-02-24T06:38:41.202Z,-1.50
2019-02-24T06:41:10.452Z,-1.50
2019-02-24T06:43:39.767Z,-1.50
2019-02-24T06:46:09.019Z,-1.50
2019-02-24T06:48:38.469Z,-1.40
2019-02-24T06:51:09.504Z,-1.40
2019-02-24T06:53:38.774Z,-1.40
2019-02-24T06:56:09.098Z,-1.30
2019-02-24T06:58:38.392Z,-1.20
2019-02-24T07:01:07.663Z,-1.20
2019-02-24T07:03:36.963Z,-1.10
2019-02-24T07:06:06.201Z,-1.00
2019-02-24T07:08:35.488Z,-1.00
2019-02-24T07:11:04.760Z,-0.90
2019-02-24T07:13:35.121Z,-0.80
2019-02-24T07:16:04.429Z,-0.70
2019-02-24T07:18:33.701Z,-0.60
2019-02-24T07:21:06.032Z,-0.60
2019-02-24T07:23:35.335Z,-0.40
2019-02-24T07:26:04.677Z,-0.30
2019-02-24T07:28:33.941Z,-0.20
2019-02-24T07:31:03.193Z,-0.10
2019-02-24T07:33:32.446Z,0.00
2019-02-24T07:36:01.694Z,0.20
2019-02-24T07:38:31.022Z,0.30
2019-02-24T07:41:00.278Z,0.50
2019-02-24T07:43:29.574Z,0.60
2019-02-24T07:45:58.831Z,0.70
2019-02-24T07:48:28.086Z,0.80
2019-02-24T07:50:57.371Z,0.90
2019-02-24T07:53:26.629Z,1.10
2019-02-24T07:55:55.930Z,1.20
2019-02-24T07:58:25.271Z,1.30
2019-02-24T08:00:54.508Z,1.50
2019-02-24T08:03:23.746Z,1.70
2019-02-24T08:05:52.994Z,1.80
2019-02-24T08:08:22.247Z,2.00
2019-02-24T08:10:51.507Z,2.10
2019-02-24T08:13:20.775Z,2.30
2019-02-24T08:15:51.109Z,2.40
2019-02-24T08:18:20.395Z,2.60
2019-02-24T08:20:49.691Z,2.70
2019-02-24T08:23:18.939Z,2.80
2019-02-24T08:25:48.209Z,2.90
2019-02-24T08:28:17.454Z,3.00
2019-02-24T08:30:46.771Z,3.10
2019-02-24T08:33:15.997Z,3.20
2019-02-24T08:35:45.291Z,3.30
2019-02-24T08:38:14.523Z,3.50
2019-02-24T08:40:43.790Z,3.60
2019-02-24T08:43:13.038Z,3.70
2019-02-24T08:45:42.602Z,3.80
2019-02-24T08:48:11.872Z,3.80
2019-02-24T08:50:41.146Z,3.90
